createdAt,value
2018-09-15T07:54:26.272Z,56.50
2018-09-15T07:59:29.910Z,46.20
2018-09-15T08:04:33.278Z,40.50
2018-09-15T08:09:36.720Z,37.30
2018-09-15T08:14:40.125Z,33.40
2018-09-15T08:19:44.579Z,33.80
2018-09-15T08:24:47.878Z,32.20
2018-09-15T08:29:51.368Z,33.70
2018-09-15T08:34:55.057Z,32.00
2018-09-15T08:39:58.963Z,27.90
2018-09-15T08:45:02.897Z,28.10
2018-09-15T08:50:07.227Z,30.20
2018-09-15T09:00:51.941Z,30.10
2018-09-15T09:05:55.615Z,31.10
2018-09-15T09:11:02.723Z,30.80
2018-09-15T09:16:07.749Z,29.10
2018-09-15T09:21:12.076Z,29.80
2018-09-15T09:26:15.731Z,29.10
2018-09-15T09:31:19.516Z,30.00
2018-09-15T09:36:35.452Z,29.90
2018-09-15T09:41:39.479Z,28.80
2018-09-15T09:46:43.334Z,29.20
2018-09-15T09:51:49.124Z,29.40
2018-09-15T09:56:53.331Z,30.60
2018-09-15T10:02:07.261Z,31.70
2018-09-15T10:07:11.254Z,36.10
2018-09-15T10:12:15.405Z,37.00
2018-09-15T10:17:19.108Z,40.10
2018-09-15T10:22:23.654Z,38.00
2018-09-15T10:27:27.214Z,41.20
2018-09-15T10:32:30.810Z,41.70
2018-09-15T10:37:34.430Z,39.80
2018-09-15T10:42:38.070Z,42.10
2018-09-15T10:47:41.704Z,42.50
2018-09-15T10:52:46.134Z,40.70
2018-09-15T10:57:50.174Z,40.00
2018-09-15T11:02:54.199Z,40.20
2018-09-15T11:07:57.886Z,41.60
2018-09-15T11:13:01.789Z,42.10
2018-09-15T11:18:06.355Z,38.10
2018-09-15T11:23:10.051Z,42.20
2018-09-15T11:28:14.354Z,41.70
2018-09-15T11:33:17.888Z,41.20
2018-09-15T11:38:22.009Z,42.50
2018-09-15T11:43:26.233Z,41.20
2018-09-15T11:48:30.122Z,34.90
2018-09-15T11:53:34.054Z,38.70
2018-09-15T11:58:37.901Z,40.70
2018-09-15T12:03:41.875Z,38.60
2018-09-15T12:08:45.925Z,39.00
2018-09-15T12:13:49.806Z,38.10
2018-09-15T12:18:53.767Z,40.20
2018-09-15T12:23:57.554Z,37.30
2018-09-15T12:29:01.609Z,35.60
2018-09-15T12:34:12.123Z,38.90
2018-09-15T12:39:15.680Z,40.40
2018-09-15T12:44:19.497Z,40.10
2018-09-15T12:49:23.198Z,37.30
2018-09-15T12:54:27.085Z,38.60
2018-09-15T12:59:31.139Z,39.30
2018-09-15T13:04:35.110Z,38.30
2018-09-15T13:09:42.813Z,37.80
2018-09-15T13:14:46.422Z,39.20
2018-09-15T13:19:50.194Z,39.10
2018-09-15T13:24:54.149Z,40.80
2018-09-15T13:29:58.506Z,40.70
2018-09-15T13:35:02.944Z,40.20
2018-09-15T13:40:06.541Z,40.20
2018-09-15T13:45:10.628Z,39.50
2018-09-15T13:50:14.225Z,39.00
2018-09-15T13:55:17.954Z,38.20
2018-09-15T14:00:21.986Z,39.50
2018-09-15T14:05:25.800Z,38.10
2018-09-15T14:10:29.875Z,40.80
2018-09-15T14:15:34.414Z,38.60
2018-09-15T14:20:40.342Z,39.90
2018-09-15T14:25:44.203Z,39.40
2018-09-15T14:30:48.151Z,39.30
2018-09-15T14:35:52.521Z,39.60
2018-09-15T14:40:57.070Z,41.20
2018-09-15T14:46:01.549Z,39.80
2018-09-15T14:51:06.027Z,39.40
2018-09-15T14:56:10.440Z,39.30
2018-09-15T15:01:14.255Z,41.10
2018-09-15T15:06:17.992Z,41.30
2018-09-15T15:11:24.739Z,42.20
2018-09-15T15:16:28.695Z,42.70
2018-09-15T15:21:38.527Z,42.50
2018-09-15T15:26:42.271Z,43.20
2018-09-15T15:31:47.753Z,42.70
2018-09-15T15:36:52.627Z,42.00
2018-09-15T15:41:58.861Z,42.70
2018-09-15T15:47:03.078Z,43.70
2018-09-15T15:52:07.075Z,43.30
2018-09-15T15:57:11.763Z,43.80
2018-09-15T16:02:15.821Z,43.00
2018-09-15T16:07:19.833Z,44.50
2018-09-15T16:12:23.553Z,43.00
2018-09-15T16:17:29.567Z,43.70
2018-09-15T16:22:33.442Z,45.20
2018-09-15T16:27:37.284Z,46.30
2018-09-15T16:32:41.033Z,47.30
2018-09-15T16:37:44.749Z,47.20
2018-09-15T16:42:48.294Z,47.90
2018-09-15T16:47:52.640Z,48.20
2018-09-15T16:52:56.370Z,48.40
2018-09-15T16:58:01.355Z,48.20
2018-09-15T17:03:04.998Z,49.10
2018-09-15T17:08:09.415Z,49.60
2018-09-15T17:13:13.566Z,50.70
2018-09-15T17:18:18.145Z,51.00
2018-09-15T17:23:23.069Z,51.50
2018-09-15T17:28:29.010Z,53.20
2018-09-15T17:33:32.799Z,52.70
2018-09-15T17:38:36.538Z,52.60
2018-09-15T17:43:49.401Z,54.30
2018-09-15T17:48:54.235Z,53.70
2018-09-15T17:53:59.541Z,55.20
2018-09-15T17:59:03.755Z,55.50
2018-09-15T18:04:07.530Z,57.10
2018-09-15T18:09:11.264Z,57.00
2018-09-15T18:14:14.870Z,56.90
2018-09-15T18:19:18.633Z,58.70
2018-09-15T18:24:22.477Z,59.90
2018-09-15T18:29:26.079Z,59.90
2018-09-15T18:34:29.887Z,61.50
2018-09-15T18:39:33.649Z,60.40
2018-09-15T18:44:37.252Z,61.50
2018-09-15T18:49:42.629Z,62.70
2018-09-15T18:54:48.031Z,64.60
2018-09-15T18:59:51.911Z,65.70
2018-09-15T19:04:56.368Z,66.50
2018-09-15T19:10:00.857Z,68.60
2018-09-15T19:15:05.303Z,69.60
2018-09-15T19:20:09.027Z,70.20
2018-09-15T19:25:12.670Z,71.00
2018-09-15T19:30:18.136Z,71.30
2018-09-15T19:35:22.019Z,72.50
2018-09-15T19:40:25.716Z,72.50
2018-09-15T19:45:29.352Z,73.60
2018-09-15T19:50:33.304Z,74.10
2018-09-15T19:55:37.350Z,74.20
2018-09-15T20:00:41.354Z,75.70
2018-09-15T20:05:45.354Z,75.00
2018-09-15T20:10:49.226Z,75.50
2018-09-15T20:15:51.845Z,76.90
2018-09-15T20:20:54.415Z,77.30
2018-09-15T20:25:58.093Z,78.10
2018-09-15T20:31:02.907Z,78.00
2018-09-15T20:36:07.043Z,78.60
2018-09-15T20:41:11.063Z,79.80
2018-09-15T20:46:14.758Z,79.60
2018-09-15T20:51:18.413Z,79.40
2018-09-15T20:56:22.357Z,79.10
2018-09-15T21:01:26.364Z,79.50
2018-09-15T21:06:30.551Z,79.70
2018-09-15T21:11:34.552Z,79.80
2018-09-15T21:16:38.368Z,80.90
2018-09-15T21:21:42.248Z,80.30
2018-09-15T21:26:46.407Z,81.10
2018-09-15T21:31:50.560Z,81.80
2018-09-15T21:36:54.451Z,82.50
2018-09-15T21:41:58.215Z,83.60
2018-09-15T21:47:01.846Z,84.30
2018-09-15T21:52:05.593Z,85.50
2018-09-15T21:57:10.286Z,84.80
2018-09-15T22:02:14.199Z,85.80
2018-09-15T22:07:18.235Z,86.40
2018-09-15T22:12:22.056Z,85.30
2018-09-15T22:17:25.601Z,84.70
2018-09-15T22:22:29.217Z,85.30
2018-09-15T22:27:32.854Z,87.10
2018-09-15T22:32:36.952Z,87.30
2018-09-15T22:37:40.844Z,87.60
2018-09-15T22:42:44.711Z,87.10
2018-09-15T22:47:48.403Z,87.20
2018-09-15T22:52:51.943Z,86.80
2018-09-15T22:57:55.632Z,87.50
2018-09-15T23:02:59.205Z,88.50
2018-09-15T23:08:03.840Z,89.10
2018-09-15T23:13:07.671Z,89.70
2018-09-15T23:18:11.406Z,88.90
2018-09-15T23:23:15.707Z,89.00
2018-09-15T23:28:19.331Z,88.40
2018-09-15T23:33:22.949Z,90.00
2018-09-15T23:38:26.562Z,90.30
2018-09-15T23:43:30.321Z,90.60
2018-09-15T23:48:34.161Z,90.90
2018-09-15T23:53:37.883Z,91.10
2018-09-15T23:58:42.701Z,91.10
